Time;durP1;ratioP1;P1;durP2;ratioP2;P2;SDS_P1;SDS_P2;PMS_P1;PMS_P2;Temp;Humidity;BMP_temperature;BMP_pressure;BME280_temperature;BME280_humidity;BME280_pressure;Samples;Min_cycle;Max_cycle;Signal;HPM_P1;HPM_P2
2023/04/21 00:01:38;;;;;;;;;;;;;;;23.19;41.76;101453.31;7259728;19;154889;-80
2023/04/21 00:04:05;;;;;;;;;;;;;;;23.16;41.72;101462.41;7255804;19;153674;-80
2023/04/21 00:06:33;;;;;;;;;;;;;;;23.15;41.84;101449.47;7256125;19;152974;-80
2023/04/21 00:09:00;;;;;;;;;;;;;;;23.12;42.03;101436.00;7257575;19;153707;-80
2023/04/21 00:11:26;;;;;;;;;;;;;;;23.12;42.01;101447.28;7265320;19;153968;-80
2023/04/21 00:13:55;;;;;;;;;;;;;;;23.12;42.33;101441.66;7258037;19;152877;-80
2023/04/21 00:16:21;;;;;;;;;;;;;;;23.10;42.15;101451.56;7255464;19;153745;-80
2023/04/21 00:18:48;;;;;;;;;;;;;;;23.08;42.28;101443.41;7256350;19;152837;-80
2023/04/21 00:21:17;;;;;;;;;;;;;;;23.02;42.49;101445.50;7255393;19;154795;-80
2023/04/21 00:23:46;;;;;;;;;;;;;;;23.02;42.43;101436.22;7257691;19;154254;-80
2023/04/21 00:26:13;;;;;;;;;;;;;;;22.97;42.69;101436.31;7251331;19;153654;-80
2023/04/21 00:28:40;;;;;;;;;;;;;;;22.91;43.20;101441.22;7258367;19;155619;-81
2023/04/21 00:31:07;;;;;;;;;;;;;;;22.88;43.00;101441.00;7255359;19;155419;-80
2023/04/21 00:33:34;;;;;;;;;;;;;;;22.84;43.01;101423.91;7266686;19;154011;-80
2023/04/21 00:36:01;;;;;;;;;;;;;;;22.80;43.13;101419.22;7254223;19;156116;-81
2023/04/21 00:38:28;;;;;;;;;;;;;;;22.79;43.15;101431.63;7257480;19;153431;-80
2023/04/21 00:40:55;;;;;;;;;;;;;;;22.76;43.23;101424.59;7259531;19;153958;-80
2023/04/21 00:43:22;;;;;;;;;;;;;;;22.73;43.45;101425.25;7258582;19;154207;-80
2023/04/21 00:45:49;;;;;;;;;;;;;;;22.71;43.64;101419.09;7255533;19;153608;-80
2023/04/21 00:48:16;;;;;;;;;;;;;;;22.68;43.65;101416.84;7259161;19;154544;-80
2023/04/21 00:50:43;;;;;;;;;;;;;;;22.67;43.78;101412.38;7256374;19;153564;-80
2023/04/21 00:53:11;;;;;;;;;;;;;;;22.63;43.79;101414.97;7263484;19;153279;-81
2023/04/21 00:55:38;;;;;;;;;;;;;;;22.63;43.78;101405.69;7258724;19;154759;-81
2023/04/21 00:58:06;;;;;;;;;;;;;;;22.62;43.94;101399.22;7257461;19;153880;-81
2023/04/21 01:00:33;;;;;;;;;;;;;;;22.60;43.91;101397.88;7259509;19;153422;-81
2023/04/21 01:03:00;;;;;;;;;;;;;;;22.58;44.17;101397.31;7257148;19;154986;-80
2023/04/21 01:05:27;;;;;;;;;;;;;;;22.57;44.53;101401.31;7257897;19;152285;-81
2023/04/21 01:07:54;;;;;;;;;;;;;;;22.55;44.05;101395.97;7249839;19;154743;-80
2023/04/21 01:10:21;;;;;;;;;;;;;;;22.52;44.63;101384.50;7257442;19;154650;-80
2023/04/21 01:12:48;;;;;;;;;;;;;;;22.51;44.28;101389.31;7257254;19;154058;-82
2023/04/21 01:15:17;;;;;;;;;;;;;;;22.48;44.41;101378.69;7257238;19;152846;-80
2023/04/21 01:17:44;;;;;;;;;;;;;;;22.48;44.35;101381.50;7252840;19;153330;-82
2023/04/21 01:20:13;;;;;;;;;;;;;;;22.44;44.36;101383.22;7253383;19;153366;-80
2023/04/21 01:22:41;;;;;;;;;;;;;;;22.42;44.29;101376.25;7253979;19;155984;-80
2023/04/21 01:25:08;;;;;;;;;;;;;;;22.44;44.26;101377.59;7254484;19;153552;-82
2023/04/21 01:27:36;;;;;;;;;;;;;;;22.43;44.27;101375.97;7252778;19;154250;-82
2023/04/21 01:30:04;;;;;;;;;;;;;;;22.36;44.23;101378.31;7251893;19;155987;-82
2023/04/21 01:32:30;;;;;;;;;;;;;;;22.34;44.65;101375.00;7257474;19;153340;-82
2023/04/21 01:34:58;;;;;;;;;;;;;;;22.32;44.63;101366.03;7255111;19;155506;-82
2023/04/21 01:37:27;;;;;;;;;;;;;;;22.30;44.76;101365.50;7263735;19;154811;-82
2023/04/21 01:39:55;;;;;;;;;;;;;;;22.29;44.66;101361.03;7256001;19;153237;-81
2023/04/21 01:42:24;;;;;;;;;;;;;;;22.29;44.85;101349.75;7252890;19;153593;-82
2023/04/21 01:44:52;;;;;;;;;;;;;;;22.28;44.65;101350.91;7252777;19;153805;-82
2023/04/21 01:47:19;;;;;;;;;;;;;;;22.23;44.63;101345.38;7255767;19;155107;-82
2023/04/21 01:49:47;;;;;;;;;;;;;;;22.22;44.80;101342.84;7254123;19;155274;-82
2023/04/21 01:52:14;;;;;;;;;;;;;;;22.23;44.46;101336.91;7256580;19;153032;-82
2023/04/21 01:54:41;;;;;;;;;;;;;;;22.20;44.72;101340.38;7254437;19;154705;-81
2023/04/21 01:57:08;;;;;;;;;;;;;;;22.16;44.56;101344.94;7255065;19;154590;-81
2023/04/21 01:59:35;;;;;;;;;;;;;;;22.16;44.61;101334.53;7259497;19;153829;-82
2023/04/21 02:02:05;;;;;;;;;;;;;;;22.15;44.81;101335.66;7251582;19;154380;-82
2023/04/21 02:04:32;;;;;;;;;;;;;;;22.15;44.52;101334.81;7254569;19;153039;-81
2023/04/21 02:07:00;;;;;;;;;;;;;;;22.12;45.06;101332.63;7256304;19;152899;-81
2023/04/21 02:09:26;;;;;;;;;;;;;;;22.10;45.05;101330.13;7256143;19;154970;-82
2023/04/21 02:11:56;;;;;;;;;;;;;;;22.09;44.98;101328.44;7258007;19;153090;-82
2023/04/21 02:14:23;;;;;;;;;;;;;;;22.08;44.82;101328.75;7253240;19;155658;-81
2023/04/21 02:16:50;;;;;;;;;;;;;;;22.06;45.15;101331.06;7254958;19;154851;-81
2023/04/21 02:19:17;;;;;;;;;;;;;;;22.04;45.03;101331.34;7252694;19;153472;-81
2023/04/21 02:21:44;;;;;;;;;;;;;;;22.03;45.11;101326.06;7269647;19;155162;-81
2023/04/21 02:24:12;;;;;;;;;;;;;;;22.01;45.39;101322.69;7261795;19;153325;-81
2023/04/21 02:26:38;;;;;;;;;;;;;;;22.00;45.22;101315.41;7262700;19;154928;-81
2023/04/21 02:29:06;;;;;;;;;;;;;;;21.99;45.36;101314.56;7257408;19;154227;-81
2023/04/21 02:31:32;;;;;;;;;;;;;;;21.99;45.26;101306.13;7261364;19;153287;-81
2023/04/21 02:34:11;;;;;;;;;;;;;;;21.97;45.52;101307.59;7252460;19;157198;-81
2023/04/21 02:36:38;;;;;;;;;;;;;;;21.97;45.34;101301.97;7259662;19;155118;-82
2023/04/21 02:39:05;;;;;;;;;;;;;;;21.91;45.56;101292.75;7259387;19;153044;-81
2023/04/21 02:41:32;;;;;;;;;;;;;;;21.94;45.52;101296.97;7258244;19;155547;-80
2023/04/21 02:43:59;;;;;;;;;;;;;;;21.92;45.46;101293.56;7266297;19;153941;-80
2023/04/21 02:46:26;;;;;;;;;;;;;;;21.91;45.60;101284.31;7260292;19;154187;-80
2023/04/21 02:48:53;;;;;;;;;;;;;;;21.89;45.72;101280.13;7260582;19;154801;-81
2023/04/21 02:51:20;;;;;;;;;;;;;;;21.87;45.34;101277.63;7259665;19;152803;-81
2023/04/21 02:53:47;;;;;;;;;;;;;;;21.86;45.70;101278.75;7263588;19;154313;-84
2023/04/21 02:56:14;;;;;;;;;;;;;;;21.83;45.91;101285.03;7258400;19;156209;-81
2023/04/21 02:58:41;;;;;;;;;;;;;;;21.83;45.98;101281.38;7262575;19;154123;-82
2023/04/21 03:01:08;;;;;;;;;;;;;;;21.81;45.96;101273.22;7259143;19;154137;-82
2023/04/21 03:03:35;;;;;;;;;;;;;;;21.81;45.92;101276.03;7267588;19;154684;-81
2023/04/21 03:06:03;;;;;;;;;;;;;;;21.79;45.93;101272.72;7260727;19;155419;-81
2023/04/21 03:08:30;;;;;;;;;;;;;;;21.78;45.83;101273.84;7259761;19;154429;-82
2023/04/21 03:10:57;;;;;;;;;;;;;;;21.77;45.75;101274.16;7257387;19;154349;-82
2023/04/21 03:13:24;;;;;;;;;;;;;;;21.76;46.09;101266.88;7261555;19;153968;-82
2023/04/21 03:15:53;;;;;;;;;;;;;;;21.74;45.96;101268.03;7255852;19;156003;-82
2023/04/21 03:18:20;;;;;;;;;;;;;;;21.71;45.63;101263.00;7260101;19;154287;-80
2023/04/21 03:20:47;;;;;;;;;;;;;;;21.70;45.93;101258.53;7257928;19;154979;-82
2023/04/21 03:23:14;;;;;;;;;;;;;;;21.69;45.57;101258.84;7260519;19;155619;-83
2023/04/21 03:25:42;;;;;;;;;;;;;;;21.67;45.60;101259.13;7268171;19;154111;-82
2023/04/21 03:28:09;;;;;;;;;;;;;;;21.67;45.63;101252.66;7260590;19;154671;-82
2023/04/21 03:30:36;;;;;;;;;;;;;;;21.64;46.03;101251.31;7255915;19;155828;-82
2023/04/21 03:33:03;;;;;;;;;;;;;;;21.64;45.66;101247.69;7260048;19;153344;-82
2023/04/21 03:35:30;;;;;;;;;;;;;;;21.62;45.72;101245.16;7256930;19;154771;-82
2023/04/21 03:37:57;;;;;;;;;;;;;;;21.60;45.92;101250.28;7258372;19;154405;-82
2023/04/21 03:40:25;;;;;;;;;;;;;;;21.59;46.06;101240.16;7255764;19;155066;-82
2023/04/21 03:42:52;;;;;;;;;;;;;;;21.56;46.14;101239.94;7257142;19;154571;-81
2023/04/21 03:45:21;;;;;;;;;;;;;;;21.56;46.10;101242.75;7256157;19;153271;-81
2023/04/21 03:47:48;;;;;;;;;;;;;;;21.52;46.00;101239.75;7264700;19;153945;-81
2023/04/21 03:50:16;;;;;;;;;;;;;;;21.53;45.81;101241.38;7256122;19;152536;-81
2023/04/21 03:52:42;;;;;;;;;;;;;;;21.51;45.81;101237.22;7259879;19;153155;-81
2023/04/21 03:55:10;;;;;;;;;;;;;;;21.49;45.61;101234.72;7256070;19;156195;-81
2023/04/21 03:57:38;;;;;;;;;;;;;;;21.47;45.99;101219.31;7256417;19;154618;-81
2023/04/21 04:00:06;;;;;;;;;;;;;;;21.46;45.76;101224.09;7254481;19;152648;-82
2023/04/21 04:02:33;;;;;;;;;;;;;;;21.42;45.98;101214.63;7257628;19;153475;-82
2023/04/21 04:05:00;;;;;;;;;;;;;;;21.43;46.00;101209.81;7256175;19;154576;-81
2023/04/21 04:07:27;;;;;;;;;;;;;;;21.41;45.90;101207.31;7260410;19;154025;-81
2023/04/21 04:09:54;;;;;;;;;;;;;;;21.41;46.09;101203.66;7267194;19;153533;-81
2023/04/21 04:12:21;;;;;;;;;;;;;;;21.37;45.94;101200.66;7258446;19;154226;-82
2023/04/21 04:14:48;;;;;;;;;;;;;;;21.36;46.12;101193.34;7255710;19;155883;-82
2023/04/21 04:17:15;;;;;;;;;;;;;;;21.37;45.70;101197.00;7258738;19;153434;-82
2023/04/21 04:19:42;;;;;;;;;;;;;;;21.34;45.70;101192.84;7254276;19;152338;-82
2023/04/21 04:22:09;;;;;;;;;;;;;;;21.34;45.79;101194.81;7255722;19;154481;-82
2023/04/21 04:24:36;;;;;;;;;;;;;;;21.32;46.09;101195.09;7257575;19;153603;-82
2023/04/21 04:27:03;;;;;;;;;;;;;;;21.31;46.29;101187.81;7259587;19;153743;-82
2023/04/21 04:29:31;;;;;;;;;;;;;;;21.30;45.85;101186.16;7257581;19;154547;-82
2023/04/21 04:32:00;;;;;;;;;;;;;;;21.28;45.93;101189.28;7266029;19;154726;-82
2023/04/21 04:34:27;;;;;;;;;;;;;;;21.28;46.00;101182.81;7255832;19;155974;-82
2023/04/21 04:36:56;;;;;;;;;;;;;;;21.24;45.91;101171.38;7257194;19;154227;-82
2023/04/21 04:39:24;;;;;;;;;;;;;;;21.23;46.44;101175.31;7256727;19;153279;-82
2023/04/21 04:41:51;;;;;;;;;;;;;;;21.22;46.25;101165.19;7253433;19;154652;-82
2023/04/21 04:44:18;;;;;;;;;;;;;;;21.22;46.05;101158.75;7255044;19;153940;-81
2023/04/21 04:46:46;;;;;;;;;;;;;;;21.23;46.48;101163.22;7257133;19;153731;-82
2023/04/21 04:49:14;;;;;;;;;;;;;;;21.25;46.54;101166.59;7256180;19;153883;-82
2023/04/21 04:51:41;;;;;;;;;;;;;;;21.32;46.23;101161.38;7255758;19;154992;-82
2023/04/21 04:54:08;;;;;;;;;;;;;;;21.40;46.23;101149.41;7260310;19;154897;-82
2023/04/21 04:56:35;;;;;;;;;;;;;;;21.45;46.25;101152.13;7257034;19;152171;-82
2023/04/21 04:59:02;;;;;;;;;;;;;;;21.51;46.56;101144.44;7256065;19;153797;-82
2023/04/21 05:01:29;;;;;;;;;;;;;;;21.56;46.49;101142.38;7255727;19;153764;-82
2023/04/21 05:03:57;;;;;;;;;;;;;;;21.63;46.77;101141.94;7254697;19;154331;-81
2023/04/21 05:06:25;;;;;;;;;;;;;;;21.68;46.88;101145.50;7257401;19;152879;-83
2023/04/21 05:08:51;;;;;;;;;;;;;;;21.74;46.63;101141.47;7255697;19;154181;-80
2023/04/21 05:11:19;;;;;;;;;;;;;;;21.79;46.19;101146.16;7255211;19;154477;-80
2023/04/21 05:13:46;;;;;;;;;;;;;;;21.83;46.10;101138.75;7263810;19;152869;-80
2023/04/21 05:16:13;;;;;;;;;;;;;;;21.87;46.09;101136.97;7254707;19;153633;-80
2023/04/21 05:18:39;;;;;;;;;;;;;;;21.93;46.37;101134.94;7258180;19;152291;-80
2023/04/21 05:21:06;;;;;;;;;;;;;;;21.96;45.90;101129.50;7252872;19;153396;-80
2023/04/21 05:23:33;;;;;;;;;;;;;;;21.99;46.01;101123.22;7256952;19;153832;-80
2023/04/21 05:26:00;;;;;;;;;;;;;;;22.03;46.03;101131.91;7255124;19;154150;-81
2023/04/21 05:28:30;;;;;;;;;;;;;;;22.06;46.26;101126.47;7256729;19;153735;-80
2023/04/21 05:30:57;;;;;;;;;;;;;;;22.08;46.25;101132.59;7253524;19;152870;-80
2023/04/21 05:33:25;;;;;;;;;;;;;;;22.12;45.65;101125.19;7250352;19;157063;-80
2023/04/21 05:35:52;;;;;;;;;;;;;;;22.14;45.79;101127.69;7262514;19;153765;-81
2023/04/21 05:38:19;;;;;;;;;;;;;;;22.16;45.99;101108.53;7258856;19;154009;-80
2023/04/21 05:40:56;;;;;;;;;;;;;;;22.18;46.02;101107.06;7252505;19;156317;-80
2023/04/21 05:43:23;;;;;;;;;;;;;;;22.21;46.01;101107.59;7258964;19;153571;-81
2023/04/21 05:45:50;;;;;;;;;;;;;;;22.22;45.65;101109.22;7253444;19;153674;-80
2023/04/21 05:48:17;;;;;;;;;;;;;;;22.24;45.21;101099.34;7255995;19;154533;-80
2023/04/21 05:50:44;;;;;;;;;;;;;;;22.25;45.11;101105.81;7255198;19;153371;-80
2023/04/21 05:53:11;;;;;;;;;;;;;;;22.25;45.24;101109.44;7258294;19;153709;-81
2023/04/21 05:55:38;;;;;;;;;;;;;;;22.26;45.24;101107.47;7262521;19;155511;-79
2023/04/21 05:58:05;;;;;;;;;;;;;;;22.25;44.78;101095.38;7273262;19;153798;-80
2023/04/21 06:00:32;;;;;;;;;;;;;;;22.26;45.16;101094.19;7252905;19;154445;-80
2023/04/21 06:02:59;;;;;;;;;;;;;;;22.27;44.56;101097.84;7265107;19;153876;-80
2023/04/21 06:05:26;;;;;;;;;;;;;;;22.26;44.92;101090.59;7262174;19;153855;-80
2023/04/21 06:07:53;;;;;;;;;;;;;;;22.25;44.53;101089.75;7261755;19;154566;-80
2023/04/21 06:10:20;;;;;;;;;;;;;;;22.26;44.79;101090.59;7263845;19;153276;-81
2023/04/21 06:12:47;;;;;;;;;;;;;;;22.27;44.88;101083.78;7263463;19;154619;-81
2023/04/21 06:15:15;;;;;;;;;;;;;;;22.26;44.90;101077.31;7259542;19;155823;-81
2023/04/21 06:17:42;;;;;;;;;;;;;;;22.26;44.94;101079.31;7261201;19;152311;-80
2023/04/21 06:20:12;;;;;;;;;;;;;;;22.24;44.78;101082.44;7266616;19;155437;-80
2023/04/21 06:22:39;;;;;;;;;;;;;;;22.20;43.25;101072.97;7261295;19;151753;-77
2023/04/21 06:25:06;;;;;;;;;;;;;;;22.13;44.39;101069.75;7261344;19;154540;-79
2023/04/21 06:27:33;;;;;;;;;;;;;;;22.16;44.23;101064.34;7261504;19;153661;-79
2023/04/21 06:30:00;;;;;;;;;;;;;;;22.16;43.88;101063.50;7257586;19;152625;-80
2023/04/21 06:32:27;;;;;;;;;;;;;;;22.17;43.82;101053.88;7251193;19;155746;-79
2023/04/21 06:34:54;;;;;;;;;;;;;;;22.17;44.21;101054.72;7258249;19;153357;-79
2023/04/21 06:37:21;;;;;;;;;;;;;;;22.20;44.18;101050.47;7262386;19;154005;-79
2023/04/21 06:39:48;;;;;;;;;;;;;;;22.24;44.08;101043.03;7258682;19;153968;-80
2023/04/21 06:42:15;;;;;;;;;;;;;;;22.30;43.80;101040.94;7267436;19;154098;-80
2023/04/21 06:44:42;;;;;;;;;;;;;;;22.35;43.91;101030.38;7255624;19;152684;-80
2023/04/21 06:47:09;;;;;;;;;;;;;;;22.38;44.12;101038.19;7258619;19;154121;-80
2023/04/21 06:49:36;;;;;;;;;;;;;;;22.41;44.19;101031.09;7260486;19;153441;-80
2023/04/21 06:52:03;;;;;;;;;;;;;;;22.45;44.03;101029.28;7257167;19;157028;-80
2023/04/21 06:54:30;;;;;;;;;;;;;;;22.48;43.88;101021.06;7258559;19;154693;-80
2023/04/21 06:56:58;;;;;;;;;;;;;;;22.52;43.88;101033.34;7260513;19;153302;-80
2023/04/21 06:59:24;;;;;;;;;;;;;;;22.49;41.71;101044.38;7257310;19;155247;-77
2023/04/21 07:01:51;;;;;;;;;;;;;;;22.20;39.50;101036.38;7258671;19;154429;-77
2023/04/21 07:04:18;;;;;;;;;;;;;;;22.20;38.77;101029.91;7263288;19;153677;-77
2023/04/21 07:06:46;;;;;;;;;;;;;;;22.01;37.78;101030.06;7258816;19;154102;-77
2023/04/21 07:09:13;;;;;;;;;;;;;;;21.99;37.57;101026.72;7260140;19;153059;-77
2023/04/21 07:11:40;;;;;;;;;;;;;;;21.91;38.14;101016.19;7257387;19;157196;-77
2023/04/21 07:14:08;;;;;;;;;;;;;;;21.99;39.06;101007.03;7255598;19;152917;-78
2023/04/21 07:16:35;;;;;;;;;;;;;;;22.11;39.16;101005.34;7258377;19;153429;-78
2023/04/21 07:19:02;;;;;;;;;;;;;;;22.20;39.22;101004.59;7258572;19;154549;-78
2023/04/21 07:21:30;;;;;;;;;;;;;;;22.31;39.44;101006.81;7255662;19;154525;-78
2023/04/21 07:23:57;;;;;;;;;;;;;;;22.35;39.72;101005.03;7266604;19;153145;-77
2023/04/21 07:26:24;;;;;;;;;;;;;;;22.42;39.96;100998.97;7255870;19;155452;-77
2023/04/21 07:28:52;;;;;;;;;;;;;;;22.48;40.26;101001.34;7257277;19;152317;-78
2023/04/21 07:31:19;;;;;;;;;;;;;;;22.54;39.89;101008.50;7257893;19;154324;-78
2023/04/21 07:33:46;;;;;;;;;;;;;;;22.58;40.08;101003.03;7257712;19;154132;-78
2023/04/21 07:36:14;;;;;;;;;;;;;;;22.64;40.08;101004.59;7255904;19;154814;-78
2023/04/21 07:38:42;;;;;;;;;;;;;;;22.72;39.96;101008.63;7255508;19;155591;-78
2023/04/21 07:41:10;;;;;;;;;;;;;;;22.76;40.00;101004.84;7255604;19;153915;-78
2023/04/21 07:43:37;;;;;;;;;;;;;;;22.75;40.42;100997.56;7258302;19;151814;-77
2023/04/21 07:46:04;;;;;;;;;;;;;;;22.79;40.23;100994.94;7263291;19;154423;-79
2023/04/21 07:48:31;;;;;;;;;;;;;;;;;;7255186;19;154036;-79
2023/04/21 07:50:59;;;;;;;;;;;;;;;22.88;39.80;100984.56;7253073;19;182088;-79
2023/04/21 07:53:26;;;;;;;;;;;;;;;22.89;39.83;100981.41;7252841;19;153163;-79
2023/04/21 07:55:53;;;;;;;;;;;;;;;22.90;39.81;100979.41;7253258;19;154228;-80
2023/04/21 07:58:21;;;;;;;;;;;;;;;22.91;40.27;100975.44;7264388;19;154745;-81
2023/04/21 08:00:49;;;;;;;;;;;;;;;22.92;39.98;100975.13;7256684;19;157160;-80
2023/04/21 08:03:16;;;;;;;;;;;;;;;22.93;39.96;100981.59;7263478;19;153292;-80
2023/04/21 08:05:43;;;;;;;;;;;;;;;22.97;39.98;100972.16;7262285;19;154791;-80
2023/04/21 08:08:10;;;;;;;;;;;;;;;22.92;39.95;100968.66;7271149;19;154946;-80
2023/04/21 08:10:38;;;;;;;;;;;;;;;22.90;39.64;100971.78;7262898;19;154702;-81
2023/04/21 08:13:05;;;;;;;;;;;;;;;22.85;39.36;100957.84;7251598;19;154092;-80
2023/04/21 08:15:33;;;;;;;;;;;;;;;22.85;39.60;100959.84;7261519;19;153782;-81
2023/04/21 08:18:00;;;;;;;;;;;;;;;;;;7257305;19;155986;-78
2023/04/21 08:20:28;;;;;;;;;;;;;;;22.86;39.61;100964.31;7253155;19;182965;-78
2023/04/21 08:22:55;;;;;;;;;;;;;;;22.89;39.31;100966.50;7255414;19;153557;-78
2023/04/21 08:25:22;;;;;;;;;;;;;;;22.89;39.53;100966.50;7254222;19;154026;-78
2023/04/21 08:27:49;;;;;;;;;;;;;;;22.85;39.37;100966.28;7253522;19;154629;-78
2023/04/21 08:30:17;;;;;;;;;;;;;;;22.85;39.31;100968.31;7257929;19;153431;-78
2023/04/21 08:32:44;;;;;;;;;;;;;;;22.84;39.44;100966.63;7255942;19;153746;-78
2023/04/21 08:35:12;;;;;;;;;;;;;;;22.85;39.35;100969.09;7253530;19;154691;-78
2023/04/21 08:37:39;;;;;;;;;;;;;;;22.90;39.45;100962.50;7251869;19;154158;-78
2023/04/21 08:40:07;;;;;;;;;;;;;;;22.94;39.59;100963.53;7252017;19;153403;-78
2023/04/21 08:42:35;;;;;;;;;;;;;;;22.96;39.29;100961.22;7251325;19;154244;-79
2023/04/21 08:45:03;;;;;;;;;;;;;;;22.99;39.58;100963.38;7249257;19;153438;-78
2023/04/21 08:47:31;;;;;;;;;;;;;;;23.01;39.39;100959.09;7250724;19;155483;-78
2023/04/21 08:49:59;;;;;;;;;;;;;;;23.02;39.39;100960.75;7258170;19;154152;-78
2023/04/21 08:52:26;;;;;;;;;;;;;;;23.07;39.48;100956.97;7259817;19;154137;-79
2023/04/21 08:54:54;;;;;;;;;;;;;;;23.08;39.54;100957.78;7255143;19;153432;-78
2023/04/21 08:57:24;;;;;;;;;;;;;;;23.11;39.43;100960.78;7251735;19;155115;-78
2023/04/21 08:59:51;;;;;;;;;;;;;;;23.13;39.36;100966.91;7249702;19;153875;-78
2023/04/21 09:02:19;;;;;;;;;;;;;;;23.14;39.11;100960.13;7252579;19;154584;-78
2023/04/21 09:04:50;;;;;;;;;;;;;;;23.16;38.97;100955.00;7249539;19;153439;-78
2023/04/21 09:07:28;;;;;;;;;;;;;;;23.17;39.16;100965.09;7250265;19;154606;-79
2023/04/21 09:09:56;;;;;;;;;;;;;;;23.19;39.13;100957.16;7248064;19;153395;-78
2023/04/21 09:12:23;;;;;;;;;;;;;;;23.19;39.13;100953.50;7249774;19;154492;-78
2023/04/21 09:14:51;;;;;;;;;;;;;;;23.22;38.81;100955.66;7247902;19;152760;-78
2023/04/21 09:17:27;;;;;;;;;;;;;;;23.19;39.09;100948.72;7251098;19;154327;-78
2023/04/21 09:19:54;;;;;;;;;;;;;;;23.19;39.43;100959.97;7252573;19;153832;-78
2023/04/21 09:22:25;;;;;;;;;;;;;;;23.21;39.10;100960.50;7253845;19;153507;-78
2023/04/21 09:24:59;;;;;;;;;;;;;;;23.21;39.14;100962.47;7252541;19;154640;-78
2023/04/21 09:27:27;;;;;;;;;;;;;;;23.17;38.96;100965.09;7250642;19;153843;-78
2023/04/21 09:29:54;;;;;;;;;;;;;;;23.16;39.41;100952.19;7257413;19;153804;-78
2023/04/21 09:32:21;;;;;;;;;;;;;;;23.18;38.83;100963.13;7262260;19;153407;-78
2023/04/21 09:34:49;;;;;;;;;;;;;;;23.12;38.95;100956.81;7265285;19;154494;-78
2023/04/21 09:37:16;;;;;;;;;;;;;;;23.12;39.23;100955.97;7257806;19;155133;-78
2023/04/21 09:39:45;;;;;;;;;;;;;;;23.09;39.43;100954.63;7257616;19;156005;-78
2023/04/21 09:42:31;;;;;;;;;;;;;;;23.06;39.16;100955.28;7258418;19;152787;-78
2023/04/21 09:44:58;;;;;;;;;;;;;;;23.02;39.21;100952.31;7253725;19;152710;-78
2023/04/21 09:47:37;;;;;;;;;;;;;;;23.01;39.47;100953.44;7254086;19;153794;-78
2023/04/21 09:50:06;;;;;;;;;;;;;;;22.98;39.49;100953.28;7257049;19;153299;-78
2023/04/21 09:52:33;;;;;;;;;;;;;;;22.94;39.28;100950.25;7259566;19;153801;-77
2023/04/21 09:55:03;;;;;;;;;;;;;;;22.91;39.44;100947.25;7256330;19;155212;-78
2023/04/21 09:57:30;;;;;;;;;;;;;;;;;;7264028;19;155491;-78
2023/04/21 10:00:04;;;;;;;;;;;;;;;22.82;39.72;100946.38;7251990;19;186785;-78
2023/04/21 10:02:33;;;;;;;;;;;;;;;22.78;39.60;100949.03;7255461;19;153084;-78
2023/04/21 10:05:02;;;;;;;;;;;;;;;22.78;39.70;100942.56;7253801;19;155715;-78
2023/04/21 10:07:29;;;;;;;;;;;;;;;22.76;39.85;100942.88;7255479;19;153831;-78
2023/04/21 10:09:58;;;;;;;;;;;;;;;22.70;39.79;100946.16;7257234;19;153509;-78
2023/04/21 10:12:26;;;;;;;;;;;;;;;22.67;39.68;100935.53;7255584;19;154877;-77
2023/04/21 10:14:54;;;;;;;;;;;;;;;22.61;39.64;100944.13;7248685;19;154000;-77
2023/04/21 10:17:23;;;;;;;;;;;;;;;22.57;39.92;100939.44;7253519;19;153825;-78
2023/04/21 10:19:52;;;;;;;;;;;;;;;22.54;40.12;100940.06;7265329;19;153835;-78
2023/04/21 10:22:28;;;;;;;;;;;;;;;22.49;40.20;100949.50;7257348;19;153658;-78
2023/04/21 10:24:57;;;;;;;;;;;;;;;22.48;40.31;100941.38;7252363;19;154744;-78
2023/04/21 10:27:34;;;;;;;;;;;;;;;22.43;40.05;100938.69;7252856;19;155980;-78
2023/04/21 10:30:17;;;;;;;;;;;;;;;22.41;40.26;100933.38;7255385;19;153117;-78
2023/04/21 10:32:45;;;;;;;;;;;;;;;22.38;40.33;100931.22;7256039;19;156064;-78
2023/04/21 10:35:13;;;;;;;;;;;;;;;22.36;40.16;100938.31;7254168;19;154344;-78
2023/04/21 10:37:41;;;;;;;;;;;;;;;22.34;40.53;100935.81;7255493;19;153671;-79
2023/04/21 10:40:18;;;;;;;;;;;;;;;22.31;40.26;100928.00;7256020;19;155288;-78
2023/04/21 10:42:49;;;;;;;;;;;;;;;22.29;40.53;100935.97;7264230;19;154189;-78
2023/04/21 10:45:16;;;;;;;;;;;;;;;22.26;40.57;100933.75;7251913;19;152815;-78
2023/04/21 10:47:45;;;;;;;;;;;;;;;22.22;40.40;100935.56;7252274;19;155757;-78
2023/04/21 10:50:13;;;;;;;;;;;;;;;22.20;40.30;100932.25;7255357;19;153493;-78
2023/04/21 10:52:45;;;;;;;;;;;;;;;22.20;40.39;100935.06;7260581;19;153078;-78
2023/04/21 10:55:14;;;;;;;;;;;;;;;22.17;40.39;100927.25;7250242;19;157769;-78
2023/04/21 10:57:43;;;;;;;;;;;;;;;22.19;40.52;100933.41;7255868;19;153758;-78
2023/04/21 11:00:14;;;;;;;;;;;;;;;22.23;40.40;100934.41;7252536;19;153098;-78
2023/04/21 11:02:41;;;;;;;;;;;;;;;22.28;40.23;100931.47;7255664;19;153657;-79
2023/04/21 11:05:10;;;;;;;;;;;;;;;22.39;39.92;100938.50;7259913;19;153480;-78
2023/04/21 11:07:37;;;;;;;;;;;;;;;22.50;39.90;100928.63;7252541;19;153825;-78
2023/04/21 11:10:06;;;;;;;;;;;;;;;22.56;39.93;100930.16;7257090;19;152956;-78
2023/04/21 11:12:36;;;;;;;;;;;;;;;22.67;39.87;100927.06;7256697;19;153982;-78
2023/04/21 11:15:07;;;;;;;;;;;;;;;22.73;39.58;100921.00;7246757;19;158300;-78
2023/04/21 11:17:34;;;;;;;;;;;;;;;22.79;39.59;100918.88;7245352;19;154301;-78
2023/04/21 11:20:03;;;;;;;;;;;;;;;22.83;39.60;100923.53;7257125;19;153675;-80
2023/04/21 11:22:30;;;;;;;;;;;;;;;;;;7256607;19;155588;-80
2023/04/21 11:24:57;;;;;;;;;;;;;;;22.87;39.75;100916.09;7254433;19;160155;-80
2023/04/21 11:27:25;;;;;;;;;;;;;;;22.90;39.49;100920.22;7253015;19;154208;-78
2023/04/21 11:29:52;;;;;;;;;;;;;;;22.94;39.73;100919.25;7250009;19;154048;-80
2023/04/21 11:32:20;;;;;;;;;;;;;;;22.95;39.44;100918.09;7258470;19;154415;-80
2023/04/21 11:34:47;;;;;;;;;;;;;;;22.95;39.64;100915.28;7252272;19;153414;-80
2023/04/21 11:37:15;;;;;;;;;;;;;;;22.96;39.43;100916.97;7253489;19;153588;-80
2023/04/21 11:39:43;;;;;;;;;;;;;;;23.00;39.29;100911.50;7254190;19;155625;-80
2023/04/21 11:42:10;;;;;;;;;;;;;;;23.03;39.39;100913.69;7255523;19;153785;-80
2023/04/21 11:44:39;;;;;;;;;;;;;;;23.02;39.60;100912.84;7251490;19;153883;-80
2023/04/21 11:47:14;;;;;;;;;;;;;;;23.02;39.62;100912.84;7260142;19;154100;-80
2023/04/21 11:49:46;;;;;;;;;;;;;;;23.02;39.57;100901.56;7253981;19;153562;-80
2023/04/21 11:52:21;;;;;;;;;;;;;;;23.02;39.51;100901.56;7255887;19;154543;-80
2023/04/21 11:54:53;;;;;;;;;;;;;;;22.99;39.55;100899.38;7251768;19;154436;-80
2023/04/21 11:57:21;;;;;;;;;;;;;;;22.98;39.49;100909.03;7254006;19;153317;-80
2023/04/21 11:59:48;;;;;;;;;;;;;;;22.96;39.38;100905.69;7252971;19;154160;-79
2023/04/21 12:02:24;;;;;;;;;;;;;;;22.98;39.51;100905.38;7257022;19;154310;-79
2023/04/21 12:05:01;;;;;;;;;;;;;;;22.95;39.46;100906.84;7250807;19;153244;-80
2023/04/21 12:07:30;;;;;;;;;;;;;;;22.94;39.66;100910.81;7249650;19;153858;-79
2023/04/21 12:09:57;;;;;;;;;;;;;;;22.92;39.23;100918.78;7260449;19;154505;-79
2023/04/21 12:12:25;;;;;;;;;;;;;;;22.88;39.65;100911.28;7255831;19;154052;-80
2023/04/21 12:14:52;;;;;;;;;;;;;;;22.84;39.53;100907.47;7248826;19;153701;-79
2023/04/21 12:17:20;;;;;;;;;;;;;;;22.80;39.82;100909.28;7249445;19;153899;-79
2023/04/21 12:19:47;;;;;;;;;;;;;;;22.80;39.32;100909.28;7253109;19;154542;-79
2023/04/21 12:22:17;;;;;;;;;;;;;;;22.74;39.58;100911.41;7254746;19;155518;-79
2023/04/21 12:24:44;;;;;;;;;;;;;;;22.70;39.65;100920.81;7256199;19;154560;-79
2023/04/21 12:27:12;;;;;;;;;;;;;;;22.67;39.79;100913.00;7258491;19;155519;-80
2023/04/21 12:29:39;;;;;;;;;;;;;;;22.65;40.00;100909.66;7252877;19;153858;-79
2023/04/21 12:32:08;;;;;;;;;;;;;;;22.64;39.47;100914.47;7264839;19;153395;-79